x

Eastern Caribbean - 190 Nm Nne Of Curacao (42059) Wave Buoy

6:50am - Fri 3rd Jul 2015 All times are AST. -4 hours from GMT.

  • Sig Wave height 6.9ft
  • Swell Direction
  • Peak Period 7s
  • Average Period 5s
  • Wind
    25mph, 29mph gusts
  • Sea Temp 82°f
  • Air Temp 82°f
  • Sea Pressure 1014.6mb
  • Eastern Caribbean - 190 Nm Nne Of Curacao
  • Eastern Caribbean - 190 Nm Nne Of Curacao

More Historic Weather Station data

Upgrade to MSW Pro to gain access to the past 30 days of data for over 8000 Wavebouys and Weather Stations around the globe.

Join Pro

Comparision Forecast

View Surf forecast
   
Fri 07/03 6:50am 7ft 7s 5s 25 29 mph 1014.6mb 82f 82f
5:50am 7ft 7s 5s 25 27 mph 1014.3mb 82f 82f
4:50am 6.5ft 8s 5s 22 27 mph 1014.2mb 82f 82f
3:50am 6.5ft 8s 5s 22 27 mph 1014.3mb 82f 82f
2:50am 6.5ft 8s 5s 22 25 mph 1014.4mb 82f 82f
12:50am 6.5ft 7s 5s 22 29 mph 1015.3mb 82f 82f
Thu 07/02 11:50pm 6.5ft 8s 5s 22 27 mph 1015.9mb 82f 82f
10:50pm 6ft 8s 5s 20 25 mph 1016.1mb 82f 82f
9:50pm 6ft 7s 5s 22 27 mph 1015.5mb 82f 82f
8:50pm 6ft 8s 5s 22 29 mph 1015.1mb 82f 82f
7:50pm 6.5ft 8s 6s 25 29 mph 1014.4mb 82f 82f
6:50pm 6.5ft 7s 5s 22 27 mph 1014.1mb 82f 82f
5:50pm 7ft 7s 5s 22 27 mph 1013.8mb 82f 82f
4:50pm 6.5ft 8s 5s 22 27 mph 1013.8mb 82f 82f
3:50pm 7ft 7s 6s 20 25 mph 1014.3mb 82f 82f
2:50pm 6.5ft 7s 5s 20 25 mph 1014.9mb 82f 82f
1:50pm 6ft 7s 5s 22 27 mph 1015.5mb 82f 83f
12:50pm 6ft 6s 5s 20 27 mph 1016.1mb 82f 82f
11:50am 6.5ft 7s 5s 22 27 mph 1016.5mb 82f 82f
10:50am 6ft 7s 5s 22 25 mph 1016.5mb 82f 82f
9:50am 6ft 6s 5s 20 25 mph 1016.8mb 82f 82f
8:50am 6ft 7s 6s 20 25 mph 1016.4mb 82f 82f
7:50am 6ft 7s 5s 20 22 mph 1016.1mb 82f 82f
6:50am 6ft 8s 5s 20 22 mph 1015.6mb 82f 82f
5:50am 6ft 8s 5s 22 27 mph 1015.3mb 82f 82f
4:50am 6.5ft 7s 6s 20 25 mph 1015.1mb 82f 82f
3:50am 6.5ft 7s 6s 22 27 mph 1014.9mb 82f 82f
2:50am 6ft 8s 6s 22 25 mph 1015mb 82f 82f
1:50am 7ft 7s 6s 20 25 mph 1015.3mb 82f 82f
12:50am 6ft 8s 5s 22 25 mph 1016.1mb 82f 82f
Wed 07/01 11:50pm 7ft 7s 6s 20 22 mph 1016.8mb 82f 82f
10:50pm 6ft 8s 6s 20 25 mph 1016.7mb 82f 82f
9:50pm 6.5ft 7s 6s 20 22 mph 1016.4mb 82f 82f
8:50pm 6ft 7s 6s 18 22 mph 1016.1mb 82f 82f
7:50pm 7ft 7s 6s 20 25 mph 1015.3mb 82f 82f
6:50pm 7ft 8s 6s 20 22 mph 1014.9mb 82f 82f
5:50pm 7ft 7s 6s 20 25 mph 1014.5mb 82f 82f
4:50pm 7ft 7s 6s 20 25 mph 1014.5mb 82f 82f
3:50pm 7ft 7s 6s 20 25 mph 1015.2mb 82f 83f
2:50pm 6.5ft 7s 5s 22 25 mph 1015.7mb 82f 83f
1:50pm 7ft 7s 6s 22 27 mph 1016.1mb 82f 83f
12:50pm 6ft 7s 5s 22 27 mph 1016.7mb 82f 82f
11:50am 6ft 7s 5s 22 25 mph 1017.3mb 82f 83f
10:50am 6ft 5s 5s 20 27 mph 1017.7mb 82f 83f
9:50am 6ft 8s 5s 22 27 mph 1017.1mb 82f 82f
8:50am 6ft 8s 5s 22 27 mph 1016.9mb 82f 82f
7:50am 6ft 7s 5s 22 27 mph 1016.4mb 82f 82f
6:50am 6ft 8s 5s 20 25 mph 1016.1mb 82f 82f
5:50am 6ft 7s 5s 20 25 mph 1015.8mb 82f 82f
4:50am 6ft 8s 6s 18 22 mph 1015.6mb 82f 81f
3:50am 6ft 7s 6s 20 22 mph 1015.1mb 82f 81f
2:50am 6ft 8s 6s 20 25 mph 1015mb 82f 79f
1:50am 6ft 7s 6s 16 20 mph 1016.6mb 82f 78f
12:50am 6ft 7s 5s 16 18 mph 1018.3mb 82f 77f
Tue 06/30 11:50pm 6ft 7s 5s 22 38 mph 1018.4mb 82f 80f
10:50pm 6ft 8s 5s 18 22 mph 1018.3mb 82f 82f
9:50pm 6ft 8s 6s 18 22 mph 1018.1mb 82f 82f
8:50pm 6ft 7s 5s 20 25 mph 1017.6mb 82f 82f
7:50pm 6ft 8s 6s 20 22 mph 1016.8mb 82f 82f
6:50pm 6ft 7s 6s 20 25 mph 1016.1mb 82f 82f
5:50pm 6ft 8s 6s 20 22 mph 1015.8mb 83f 82f
4:50pm 6ft 8s 6s 20 22 mph 1015.2mb 83f 82f
3:50pm 6ft 8s 6s 18 20 mph 1015.5mb 83f 82f
2:50pm 6ft 7s 6s 18 22 mph 1016.3mb 82f 82f
1:50pm 6ft 8s 6s 18 22 mph 1016.8mb 82f 82f
12:50pm 6ft 8s 6s 18 20 mph 1017.2mb 82f 82f
11:50am 6ft 8s 6s 18 22 mph 1017.4mb 82f 82f
10:50am 6.5ft 7s 6s 18 20 mph 1017.3mb 82f 82f
9:50am 6ft 8s 6s 18 22 mph 1017.5mb 82f 82f
8:50am 7ft 7s 6s 18 22 mph 1017.4mb 82f 82f
7:50am 6.5ft 8s 6s 18 22 mph 1016.9mb 82f 82f
6:50am 6.5ft 7s 6s 20 25 mph 1016.2mb 82f 81f
5:50am 7ft 7s 6s 18 22 mph 1015.9mb 82f 81f
4:50am 7ft 7s 6s 18 25 mph 1015.6mb 82f 81f
3:50am 7ft 7s 6s 20 27 mph 1015.3mb 82f 81f
2:50am 7ft 7s 6s 22 27 mph 1015.5mb 82f 82f
1:50am 7ft 7s 6s 22 25 mph 1015.7mb 82f 82f
12:50am 7.5ft 8s 6s 18 22 mph 1016.5mb 82f 81f
Mon 06/29 11:50pm 7ft 7s 6s 20 25 mph 1016.8mb 82f 82f
10:50pm 6ft 7s 6s 20 22 mph 1017.2mb 82f 82f
9:50pm 6.5ft 7s 6s 22 25 mph 1016.9mb 82f 82f
8:50pm 7ft 8s 6s 22 27 mph 1016.5mb 82f 82f
7:50pm 6.5ft 8s 6s 22 27 mph 1016mb 82f 82f
6:50pm 6ft 8s 6s 20 25 mph 1015.6mb 82f 82f
5:50pm 6.5ft 6s 6s 22 27 mph 1015.1mb 83f 83f
4:50pm 7ft 8s 6s 20 25 mph 1015.1mb 83f 82f
3:50pm 7ft 7s 6s 22 27 mph 1015.3mb 83f 83f
2:50pm 7ft 7s 6s 20 25 mph 1015.9mb 83f 83f
1:50pm 7ft 7s 6s 18 22 mph 1016.7mb 83f 83f
12:50pm 6.5ft 7s 6s 20 22 mph 1017.4mb 82f 83f
11:50am 7ft 7s 6s 22 25 mph 1017.9mb 82f 83f